Time;durP1;ratioP1;P1;durP2;ratioP2;P2;SDS_P1;SDS_P2;PMS_P1;PMS_P2;Temp;Humidity;BMP_temperature;BMP_pressure;BME280_temperature;BME280_humidity;BME280_pressure;Samples;Min_cycle;Max_cycle;Signal;HPM_P1;HPM_P2
2021/05/22 00:01:01;;;;;;;;;;;11.40;99.90;;;;;;5055110;28;20380;-70
2021/05/22 00:03:29;;;;;;;;;;;11.50;99.90;;;;;;5056013;28;20379;-70
2021/05/22 00:05:56;;;;;;;;;;;11.30;99.90;;;;;;5056120;28;19933;-72
2021/05/22 00:08:24;;;;;;;;;;;11.30;99.90;;;;;;5056061;28;19932;-71
2021/05/22 00:10:52;;;;;;;;;;;11.30;99.90;;;;;;5074392;28;20027;-70
2021/05/22 00:13:20;;;;;;;;;;;11.30;99.90;;;;;;5073486;28;19925;-70
2021/05/22 00:15:48;;;;;;;;;;;11.30;99.90;;;;;;5073050;28;20410;-71
2021/05/22 00:18:16;;;;;;;;;;;11.30;99.90;;;;;;5073456;28;19924;-70
2021/05/22 00:20:44;;;;;;;;;;;11.30;99.90;;;;;;5072046;28;19925;-69
2021/05/22 00:23:13;;;;;;;;;;;11.30;99.90;;;;;;5055268;28;19970;-71
2021/05/22 00:25:41;;;;;;;;;;;11.30;99.90;;;;;;5073335;28;19928;-71
2021/05/22 00:28:35;;;;;;;;;;;11.30;99.90;;;;;;5073852;28;19931;-71
2021/05/22 00:31:03;;;;;;;;;;;11.30;99.90;;;;;;5072510;28;20034;-70
2021/05/22 00:33:31;;;;;;;;;;;11.10;99.90;;;;;;5055586;28;19928;-71
2021/05/22 00:35:59;;;;;;;;;;;11.20;99.90;;;;;;5073860;28;19928;-71
2021/05/22 00:38:26;;;;;;;;;;;11.10;99.90;;;;;;5073337;28;20379;-70
2021/05/22 00:40:54;;;;;;;;;;;11.20;99.90;;;;;;5055524;28;20372;-71
2021/05/22 00:43:22;;;;;;;;;;;11.20;99.90;;;;;;5038652;28;19930;-73
2021/05/22 00:45:54;;;;;;;;;;;11.20;99.90;;;;;;5036149;28;19925;-70
2021/05/22 00:48:22;;;;;;;;;;;11.10;99.90;;;;;;5019495;28;19925;-72
2021/05/22 00:50:51;;;;;;;;;;;11.10;99.90;;;;;;5054522;28;20038;-71
2021/05/22 00:53:19;;;;;;;;;;;11.10;99.90;;;;;;5035811;28;19924;-71
2021/05/22 00:55:47;;;;;;;;;;;11.10;99.90;;;;;;5053744;28;19967;-72
2021/05/22 00:58:14;;;;;;;;;;;11.10;99.90;;;;;;5035466;28;20356;-71
2021/05/22 01:00:43;;;;;;;;;;;10.90;99.90;;;;;;5057462;28;19925;-72
2021/05/22 01:03:18;;;;;;;;;;;11.00;99.90;;;;;;5055926;28;19925;-71
2021/05/22 01:05:46;;;;;;;;;;;10.90;99.90;;;;;;5073866;28;19931;-71
2021/05/22 01:08:16;;;;;;;;;;;10.90;99.90;;;;;;5055209;28;19931;-70
2021/05/22 01:10:45;;;;;;;;;;;10.90;99.90;;;;;;5042011;28;20330;-71
2021/05/22 01:13:13;;;;;;;;;;;10.80;99.90;;;;;;5076690;28;19924;-71
2021/05/22 01:15:42;;;;;;;;;;;10.90;99.90;;;;;;5076168;28;20122;-71
2021/05/22 01:18:12;;;;;;;;;;;10.90;99.90;;;;;;5077114;28;19924;-72
2021/05/22 01:20:40;;;;;;;;;;;10.90;99.90;;;;;;5077172;28;20020;-72
2021/05/22 01:23:11;;;;;;;;;;;10.90;99.90;;;;;;5059072;28;20399;-71
2021/05/22 01:25:40;;;;;;;;;;;11.00;99.90;;;;;;5055280;28;19929;-74
2021/05/22 01:28:09;;;;;;;;;;;11.00;99.90;;;;;;5056880;28;19936;-74
2021/05/22 01:30:38;;;;;;;;;;;11.00;99.90;;;;;;5051199;28;19940;-71
2021/05/22 01:33:07;;;;;;;;;;;10.90;99.90;;;;;;5035888;28;19925;-70
2021/05/22 01:35:35;;;;;;;;;;;11.00;99.90;;;;;;5036675;28;19929;-74
2021/05/22 01:38:03;;;;;;;;;;;11.00;99.90;;;;;;5035220;28;20293;-71
2021/05/22 01:40:31;;;;;;;;;;;11.00;99.90;;;;;;5036588;28;20415;-72
2021/05/22 01:43:00;;;;;;;;;;;11.00;99.90;;;;;;5036731;28;20016;-72
2021/05/22 01:45:29;;;;;;;;;;;11.00;99.90;;;;;;5035004;28;19925;-71
2021/05/22 01:47:58;;;;;;;;;;;10.80;99.90;;;;;;5037695;28;20292;-71
2021/05/22 01:50:27;;;;;;;;;;;10.80;99.90;;;;;;5043413;28;19925;-75
2021/05/22 01:52:56;;;;;;;;;;;10.90;99.90;;;;;;5045423;28;20015;-71
2021/05/22 01:55:25;;;;;;;;;;;10.90;99.90;;;;;;5043431;28;19925;-71
2021/05/22 01:57:52;;;;;;;;;;;10.80;99.90;;;;;;5054993;28;20016;-72
2021/05/22 02:00:21;;;;;;;;;;;10.90;99.90;;;;;;5038813;28;19936;-74
2021/05/22 02:02:51;;;;;;;;;;;10.90;99.90;;;;;;5055092;28;19924;-71
2021/05/22 02:05:21;;;;;;;;;;;11.00;99.90;;;;;;5055323;28;19925;-70
2021/05/22 02:07:51;;;;;;;;;;;10.90;99.90;;;;;;5041247;28;20022;-71
2021/05/22 02:10:19;;;;;;;;;;;10.80;99.90;;;;;;5043468;28;19929;-71
2021/05/22 02:12:47;;;;;;;;;;;10.80;99.90;;;;;;5059662;28;19960;-71
2021/05/22 02:15:15;;;;;;;;;;;10.70;99.90;;;;;;5060461;28;19924;-72
2021/05/22 02:18:10;;;;;;;;;;;10.80;99.90;;;;;;5060229;28;19952;-71
2021/05/22 02:20:38;;;;;;;;;;;10.80;99.90;;;;;;5059169;28;19925;-71
2021/05/22 02:23:07;;;;;;;;;;;10.80;99.90;;;;;;5060256;28;19931;-73
2021/05/22 02:25:35;;;;;;;;;;;10.80;99.90;;;;;;5065962;28;20007;-71
2021/05/22 02:28:04;;;;;;;;;;;10.90;99.90;;;;;;5076448;28;19931;-71
2021/05/22 02:30:34;;;;;;;;;;;10.80;99.90;;;;;;5073270;28;19924;-71
2021/05/22 02:33:03;;;;;;;;;;;10.70;99.90;;;;;;5075291;28;19924;-71
2021/05/22 02:35:33;;;;;;;;;;;10.80;99.90;;;;;;5057638;28;19946;-71
2021/05/22 02:38:02;;;;;;;;;;;10.80;99.90;;;;;;5074052;28;20356;-71
2021/05/22 02:40:30;;;;;;;;;;;10.80;99.90;;;;;;5075359;28;19978;-71
2021/05/22 02:43:01;;;;;;;;;;;10.70;99.90;;;;;;5057158;28;19932;-71
2021/05/22 02:45:29;;;;;;;;;;;10.70;99.90;;;;;;5074324;28;19924;-71
2021/05/22 02:47:58;;;;;;;;;;;10.60;99.90;;;;;;5057114;28;20021;-70
2021/05/22 02:50:26;;;;;;;;;;;10.50;99.90;;;;;;5075102;28;20359;-71
2021/05/22 02:52:55;;;;;;;;;;;10.40;99.90;;;;;;5073804;28;19924;-71
2021/05/22 02:55:22;;;;;;;;;;;10.30;99.90;;;;;;5057296;28;19936;-72
2021/05/22 02:57:51;;;;;;;;;;;10.30;99.90;;;;;;5056710;28;19925;-74
2021/05/22 03:00:20;;;;;;;;;;;10.40;99.90;;;;;;5056244;28;19928;-74
2021/05/22 03:02:48;;;;;;;;;;;10.30;99.90;;;;;;5057218;28;19951;-71
2021/05/22 03:05:21;;;;;;;;;;;10.30;99.90;;;;;;5075108;28;19924;-70
2021/05/22 03:07:49;;;;;;;;;;;10.30;99.90;;;;;;5074990;28;20338;-71
2021/05/22 03:10:18;;;;;;;;;;;10.30;99.90;;;;;;5057059;28;19924;-70
2021/05/22 03:12:45;;;;;;;;;;;10.20;99.90;;;;;;5056888;28;19932;-71
2021/05/22 03:15:13;;;;;;;;;;;10.20;99.90;;;;;;5074739;28;19924;-71
2021/05/22 03:17:41;;;;;;;;;;;10.20;99.90;;;;;;5074775;28;20260;-71
2021/05/22 03:20:09;;;;;;;;;;;10.10;99.90;;;;;;5074464;28;19939;-71
2021/05/22 03:22:37;;;;;;;;;;;10.20;99.90;;;;;;5074461;28;19925;-71
2021/05/22 03:25:31;;;;;;;;;;;10.10;99.90;;;;;;5056099;28;19925;-71
2021/05/22 03:27:59;;;;;;;;;;;10.10;99.90;;;;;;5074138;28;19935;-70
2021/05/22 03:30:27;;;;;;;;;;;10.10;99.90;;;;;;5055436;28;19924;-71
2021/05/22 03:32:58;;;;;;;;;;;10.00;99.90;;;;;;5039291;28;20361;-69
2021/05/22 03:35:26;;;;;;;;;;;10.00;99.90;;;;;;5074149;28;20283;-72
2021/05/22 03:37:53;;;;;;;;;;;10.10;99.90;;;;;;5074061;28;20022;-71
2021/05/22 03:40:21;;;;;;;;;;;10.10;99.90;;;;;;5058927;28;19982;-71
2021/05/22 03:42:51;;;;;;;;;;;10.10;99.90;;;;;;5060418;28;20291;-71
2021/05/22 03:45:19;;;;;;;;;;;10.10;99.90;;;;;;5072957;28;19928;-70
2021/05/22 03:47:46;;;;;;;;;;;10.20;99.90;;;;;;5072968;28;19924;-71
2021/05/22 03:50:14;;;;;;;;;;;10.10;99.90;;;;;;5056570;28;19924;-70
2021/05/22 03:52:43;;;;;;;;;;;10.10;99.90;;;;;;5074405;28;19924;-74
2021/05/22 03:55:11;;;;;;;;;;;10.00;99.90;;;;;;5074431;28;19924;-71
2021/05/22 03:57:39;;;;;;;;;;;10.00;99.90;;;;;;5073733;28;20349;-70
2021/05/22 04:00:09;;;;;;;;;;;10.00;99.90;;;;;;5055617;28;19928;-71
2021/05/22 04:02:36;;;;;;;;;;;10.00;99.90;;;;;;5073851;28;20291;-71
2021/05/22 04:05:04;;;;;;;;;;;10.00;99.90;;;;;;5055804;28;19975;-70
2021/05/22 04:07:32;;;;;;;;;;;10.00;99.90;;;;;;5056053;28;19924;-71
2021/05/22 04:10:00;;;;;;;;;;;9.90;99.90;;;;;;5056126;28;19924;-71
2021/05/22 04:12:28;;;;;;;;;;;9.80;99.90;;;;;;5072502;28;20442;-71
2021/05/22 04:14:57;;;;;;;;;;;9.80;99.90;;;;;;5056106;28;19925;-71
2021/05/22 04:17:25;;;;;;;;;;;9.70;99.90;;;;;;5072953;28;19924;-72
2021/05/22 04:19:53;;;;;;;;;;;9.60;99.90;;;;;;5073746;28;19924;-70
2021/05/22 04:22:21;;;;;;;;;;;9.50;99.90;;;;;;5039542;28;20313;-71
2021/05/22 04:24:49;;;;;;;;;;;9.50;99.90;;;;;;5073862;28;19970;-70
2021/05/22 04:27:16;;;;;;;;;;;9.40;99.90;;;;;;5073914;28;19931;-71
2021/05/22 04:29:44;;;;;;;;;;;9.40;99.90;;;;;;5073288;28;19932;-74
2021/05/22 04:32:12;;;;;;;;;;;9.40;99.90;;;;;;5072356;28;20288;-71
2021/05/22 04:34:41;;;;;;;;;;;9.30;99.90;;;;;;5073454;28;19955;-70
2021/05/22 04:37:08;;;;;;;;;;;9.10;99.90;;;;;;5073665;28;20443;-70
2021/05/22 04:39:36;;;;;;;;;;;9.00;99.90;;;;;;5073222;28;19924;-70
2021/05/22 04:42:04;;;;;;;;;;;9.00;99.90;;;;;;5073704;28;19925;-72
2021/05/22 04:44:32;;;;;;;;;;;9.00;99.90;;;;;;5075059;28;19951;-70
2021/05/22 04:46:59;;;;;;;;;;;9.10;99.90;;;;;;5058287;28;19978;-70
2021/05/22 04:49:28;;;;;;;;;;;9.20;99.90;;;;;;5059969;28;19925;-74
2021/05/22 04:51:56;;;;;;;;;;;9.30;99.90;;;;;;5042761;28;19925;-71
2021/05/22 04:54:24;;;;;;;;;;;9.30;99.90;;;;;;5042718;28;19925;-70
2021/05/22 04:56:52;;;;;;;;;;;9.40;99.90;;;;;;5077482;28;20292;-71
2021/05/22 04:59:20;;;;;;;;;;;9.70;99.90;;;;;;5076867;28;19929;-73
2021/05/22 05:01:47;;;;;;;;;;;9.80;99.90;;;;;;5058208;28;20023;-71
2021/05/22 05:04:15;;;;;;;;;;;10.20;99.90;;;;;;5058926;28;19946;-70
2021/05/22 05:06:43;;;;;;;;;;;10.10;99.90;;;;;;5076620;28;19930;-70
2021/05/22 05:09:12;;;;;;;;;;;10.40;99.90;;;;;;5076857;28;19925;-71
2021/05/22 05:11:40;;;;;;;;;;;10.80;99.90;;;;;;5076373;28;19954;-71
2021/05/22 05:14:07;;;;;;;;;;;10.60;99.90;;;;;;5041985;28;19928;-71
2021/05/22 05:17:00;;;;;;;;;;;10.70;99.90;;;;;;5075834;28;19924;-71
2021/05/22 05:19:28;;;;;;;;;;;10.90;99.90;;;;;;5058629;28;19931;-71
2021/05/22 05:21:56;;;;;;;;;;;11.10;99.90;;;;;;5058933;28;20033;-75
2021/05/22 05:24:25;;;;;;;;;;;11.20;99.90;;;;;;5077307;28;20414;-70
2021/05/22 05:27:18;;;;;;;;;;;11.30;99.90;;;;;;5058679;28;19924;-70
2021/05/22 05:29:46;;;;;;;;;;;11.40;99.90;;;;;;5076670;28;20364;-70
2021/05/22 05:32:14;;;;;;;;;;;11.50;99.90;;;;;;5057894;28;19925;-73
2021/05/22 05:34:41;;;;;;;;;;;11.40;99.90;;;;;;5076457;28;19970;-70
2021/05/22 05:37:09;;;;;;;;;;;11.00;99.90;;;;;;5058491;28;20607;-71
2021/05/22 05:39:39;;;;;;;;;;;11.10;99.90;;;;;;5058687;28;19925;-73
2021/05/22 05:42:07;;;;;;;;;;;11.40;99.90;;;;;;5076165;28;20003;-71
2021/05/22 05:44:35;;;;;;;;;;;11.50;99.90;;;;;;5058379;28;19924;-71
2021/05/22 05:47:03;;;;;;;;;;;11.60;99.90;;;;;;5075330;28;19928;-71
2021/05/22 05:49:31;;;;;;;;;;;11.70;99.90;;;;;;5058335;28;19960;-71
2021/05/22 05:51:58;;;;;;;;;;;11.80;99.90;;;;;;5077145;28;20011;-71
2021/05/22 05:54:26;;;;;;;;;;;11.90;99.90;;;;;;5041439;28;19924;-70
2021/05/22 05:56:55;;;;;;;;;;;11.70;99.90;;;;;;5076295;28;19924;-70
2021/05/22 05:59:22;;;;;;;;;;;12.00;99.90;;;;;;5058021;28;20330;-71
2021/05/22 06:01:50;;;;;;;;;;;12.30;99.90;;;;;;5075831;28;19950;-73
2021/05/22 06:04:18;;;;;;;;;;;12.20;99.90;;;;;;5076557;28;19951;-72
2021/05/22 06:06:45;;;;;;;;;;;12.30;99.90;;;;;;5058475;28;19924;-70
2021/05/22 06:09:13;;;;;;;;;;;12.00;99.90;;;;;;5076242;28;19931;-70
2021/05/22 06:11:41;;;;;;;;;;;11.90;99.90;;;;;;5075482;28;19950;-72
2021/05/22 06:14:14;;;;;;;;;;;11.90;99.90;;;;;;5040957;28;20024;-73
2021/05/22 06:16:44;;;;;;;;;;;12.10;99.90;;;;;;5056829;28;19928;-70
2021/05/22 06:19:12;;;;;;;;;;;12.30;99.90;;;;;;5057162;28;19925;-70
2021/05/22 06:21:39;;;;;;;;;;;12.70;99.90;;;;;;5075481;28;20281;-71
2021/05/22 06:24:08;;;;;;;;;;;12.50;99.90;;;;;;5057229;28;19933;-70
2021/05/22 06:26:36;;;;;;;;;;;12.20;99.90;;;;;;5057436;28;19982;-70
2021/05/22 06:29:04;;;;;;;;;;;11.90;99.90;;;;;;5057306;28;19925;-72
2021/05/22 06:31:33;;;;;;;;;;;11.40;99.90;;;;;;5052938;28;19932;-70
2021/05/22 06:34:00;;;;;;;;;;;11.40;99.90;;;;;;5053478;28;19929;-70
2021/05/22 06:36:30;;;;;;;;;;;11.40;99.90;;;;;;5039886;28;19925;-71
2021/05/22 06:38:58;;;;;;;;;;;11.30;99.90;;;;;;5055440;28;19955;-70
2021/05/22 06:41:25;;;;;;;;;;;11.30;99.90;;;;;;5053926;28;19964;-70
2021/05/22 06:43:53;;;;;;;;;;;11.30;99.90;;;;;;5055272;28;20020;-70
2021/05/22 06:49:04;;;;;;;;;;;11.50;99.90;;;;;;5038346;28;19925;-71
2021/05/22 06:51:32;;;;;;;;;;;11.60;99.90;;;;;;5054632;28;19925;-71
2021/05/22 06:54:01;;;;;;;;;;;12.00;99.90;;;;;;5037550;28;19967;-73
2021/05/22 06:56:28;;;;;;;;;;;12.10;99.90;;;;;;5054997;28;19928;-71
2021/05/22 06:58:56;;;;;;;;;;;12.20;99.90;;;;;;5036792;28;19925;-70
2021/05/22 07:01:24;;;;;;;;;;;12.40;99.90;;;;;;5066378;28;19951;-70
2021/05/22 07:04:17;;;;;;;;;;;13.40;99.90;;;;;;5075758;28;20026;-71
2021/05/22 07:06:46;;;;;;;;;;;14.00;99.90;;;;;;5041909;28;19925;-72
2021/05/22 07:09:14;;;;;;;;;;;13.50;99.90;;;;;;5077689;28;20376;-70
2021/05/22 07:11:42;;;;;;;;;;;12.80;99.90;;;;;;5078062;28;19924;-70
2021/05/22 07:14:10;;;;;;;;;;;12.50;99.90;;;;;;5060516;28;19925;-73
2021/05/22 07:16:56;;;;;;;;;;;12.50;99.90;;;;;;5037688;28;19924;-70
2021/05/22 07:19:24;;;;;;;;;;;13.10;99.90;;;;;;5056123;28;19929;-69
2021/05/22 07:21:53;;;;;;;;;;;13.10;99.90;;;;;;5058745;28;19925;-70
2021/05/22 07:24:20;;;;;;;;;;;13.40;99.90;;;;;;5039262;28;20154;-70
2021/05/22 07:30:07;;;;;;;;;;;15.00;98.30;;;;;;5037742;28;20015;-70
2021/05/22 07:32:35;;;;;;;;;;;15.80;97.60;;;;;;5076055;28;19924;-70
2021/05/22 07:35:03;;;;;;;;;;;18.10;91.40;;;;;;5074126;28;20024;-71
2021/05/22 07:37:31;;;;;;;;;;;16.70;90.70;;;;;;5075389;28;19928;-73
2021/05/22 07:40:24;;;;;;;;;;;17.60;90.60;;;;;;5057191;28;19954;-74
2021/05/22 07:42:52;;;;;;;;;;;19.20;85.50;;;;;;5058216;28;19984;-69
2021/05/22 07:45:20;;;;;;;;;;;19.50;80.00;;;;;;5056871;28;19924;-70
2021/05/22 07:47:48;;;;;;;;;;;18.50;80.90;;;;;;5057599;28;19925;-71
2021/05/22 07:50:16;;;;;;;;;;;18.30;79.90;;;;;;5076981;28;19986;-69
2021/05/22 07:52:48;;;;;;;;;;;18.80;78.70;;;;;;5076591;28;20019;-69
2021/05/22 07:55:16;;;;;;;;;;;16.90;81.70;;;;;;5077272;28;20015;-69
2021/05/22 07:57:44;;;;;;;;;;;16.20;83.50;;;;;;5076823;28;20019;-68
2021/05/22 08:00:12;;;;;;;;;;;17.90;82.80;;;;;;5058618;28;19929;-72
2021/05/22 08:02:39;;;;;;;;;;;20.50;74.80;;;;;;5076903;28;20360;-70
2021/05/22 08:05:08;;;;;;;;;;;22.20;65.50;;;;;;5076734;28;19985;-73
2021/05/22 08:07:35;;;;;;;;;;;22.10;62.10;;;;;;5075974;28;19924;-70
2021/05/22 08:10:05;;;;;;;;;;;22.40;58.10;;;;;;5076673;28;20371;-71
2021/05/22 08:12:33;;;;;;;;;;;19.30;63.30;;;;;;5042771;28;19968;-73
2021/05/22 08:15:01;;;;;;;;;;;18.80;64.20;;;;;;5076613;28;19947;-73
2021/05/22 08:17:29;;;;;;;;;;;17.10;68.90;;;;;;5037522;28;20273;-73
2021/05/22 08:19:58;;;;;;;;;;;16.00;74.40;;;;;;5023788;28;19925;-74
2021/05/22 08:22:25;;;;;;;;;;;15.20;77.70;;;;;;5025393;28;19928;-70
2021/05/22 08:24:54;;;;;;;;;;;15.00;81.90;;;;;;5042214;28;19966;-70
2021/05/22 08:27:22;;;;;;;;;;;17.50;75.60;;;;;;5060712;28;19974;-70
2021/05/22 08:30:20;;;;;;;;;;;20.30;67.90;;;;;;5062161;28;20023;-70
2021/05/22 08:32:48;;;;;;;;;;;20.70;60.50;;;;;;5080483;28;19947;-66
2021/05/22 08:35:16;;;;;;;;;;;23.00;55.40;;;;;;5081324;28;19970;-74
2021/05/22 08:37:44;;;;;;;;;;;23.60;52.90;;;;;;5082337;28;19931;-71
2021/05/22 08:40:13;;;;;;;;;;;24.70;49.00;;;;;;5049695;28;20029;-72
2021/05/22 08:42:42;;;;;;;;;;;23.70;46.80;;;;;;5063737;28;19929;-72
2021/05/22 08:45:11;;;;;;;;;;;21.00;52.30;;;;;;5080082;28;19932;-71
2021/05/22 08:47:39;;;;;;;;;;;22.10;53.10;;;;;;5061909;28;19947;-68
2021/05/22 08:50:09;;;;;;;;;;;21.90;53.00;;;;;;5079659;28;20308;-69
2021/05/22 08:52:37;;;;;;;;;;;21.70;52.50;;;;;;5061333;28;19929;-69
2021/05/22 08:55:05;;;;;;;;;;;20.20;53.90;;;;;;5079364;28;19924;-68
2021/05/22 08:57:33;;;;;;;;;;;18.80;58.70;;;;;;5060781;28;19925;-70
2021/05/22 09:00:05;;;;;;;;;;;17.50;60.80;;;;;;5079446;28;19951;-68
2021/05/22 09:02:59;;;;;;;;;;;16.70;65.50;;;;;;5079503;28;19978;-68
2021/05/22 09:05:27;;;;;;;;;;;17.30;64.40;;;;;;5080148;28;19925;-67
2021/05/22 09:07:56;;;;;;;;;;;18.30;60.90;;;;;;5079804;28;19947;-67
2021/05/22 09:10:25;;;;;;;;;;;18.90;58.80;;;;;;5061578;28;19928;-67
2021/05/22 09:12:54;;;;;;;;;;;18.60;59.50;;;;;;5079997;28;19939;-67
2021/05/22 09:15:24;;;;;;;;;;;18.40;59.80;;;;;;5061352;28;19954;-67
2021/05/22 09:18:19;;;;;;;;;;;17.10;61.80;;;;;;5079812;28;20360;-67
2021/05/22 09:20:49;;;;;;;;;;;16.90;64.40;;;;;;5078368;28;19954;-68
2021/05/22 09:23:18;;;;;;;;;;;19.10;61.20;;;;;;5059985;28;19924;-70
2021/05/22 09:25:47;;;;;;;;;;;20.20;56.60;;;;;;5077707;28;19931;-69
2021/05/22 09:28:16;;;;;;;;;;;20.90;54.80;;;;;;5060928;28;19925;-68
2021/05/22 09:30:46;;;;;;;;;;;19.80;56.30;;;;;;5077953;28;20011;-68
2021/05/22 09:33:14;;;;;;;;;;;19.50;57.20;;;;;;5061326;28;19939;-68
2021/05/22 09:35:42;;;;;;;;;;;19.00;58.60;;;;;;5078802;28;19935;-67
2021/05/22 09:38:10;;;;;;;;;;;17.80;60.20;;;;;;5079546;28;20355;-69
2021/05/22 09:40:38;;;;;;;;;;;16.50;64.30;;;;;;5079927;28;20342;-68
2021/05/22 09:43:07;;;;;;;;;;;16.40;65.40;;;;;;5060621;28;19924;-69
2021/05/22 09:45:36;;;;;;;;;;;16.20;65.60;;;;;;5055600;28;19937;-69
2021/05/22 09:48:09;;;;;;;;;;;15.80;67.30;;;;;;5057852;28;19931;-69
2021/05/22 09:50:38;;;;;;;;;;;15.80;68.40;;;;;;5072371;28;19951;-67
2021/05/22 09:53:20;;;;;;;;;;;16.00;67.90;;;;;;5057243;28;19989;-70
2021/05/22 09:56:02;;;;;;;;;;;16.20;68.50;;;;;;5056984;28;19924;-69
2021/05/22 09:58:33;;;;;;;;;;;16.50;67.50;;;;;;5057300;28;19925;-69
2021/05/22 10:01:01;;;;;;;;;;;16.10;68.10;;;;;;5065091;28;20410;-73
2021/05/22 10:03:30;;;;;;;;;;;16.00;69.20;;;;;;5059691;28;19967;-71
2021/05/22 10:06:22;;;;;;;;;;;15.70;70.40;;;;;;5076892;28;19932;-70
2021/05/22 10:08:50;;;;;;;;;;;15.60;71.60;;;;;;5077465;28;20396;-70
2021/05/22 10:11:18;;;;;;;;;;;16.00;70.60;;;;;;5077111;28;20328;-70
2021/05/22 10:13:45;;;;;;;;;;;16.50;69.80;;;;;;5078330;28;19928;-68
2021/05/22 10:16:13;;;;;;;;;;;17.00;68.90;;;;;;5077321;28;19925;-69
2021/05/22 10:18:42;;;;;;;;;;;18.10;65.00;;;;;;5059724;28;20395;-69
2021/05/22 10:21:10;;;;;;;;;;;19.70;58.60;;;;;;5076433;28;19924;-69
2021/05/22 10:23:38;;;;;;;;;;;20.70;56.10;;;;;;5078841;28;19967;-69
2021/05/22 10:26:07;;;;;;;;;;;22.50;52.60;;;;;;5078091;28;19995;-69
2021/05/22 10:28:34;;;;;;;;;;;21.90;52.70;;;;;;5060021;28;19951;-71
2021/05/22 10:31:02;;;;;;;;;;;19.00;56.80;;;;;;5055599;28;19925;-68
2021/05/22 10:33:35;;;;;;;;;;;18.20;59.80;;;;;;5058448;28;19994;-69
2021/05/22 10:36:04;;;;;;;;;;;17.70;60.20;;;;;;5057793;28;19929;-71
2021/05/22 10:38:36;;;;;;;;;;;17.70;61.50;;;;;;5057495;28;19933;-69
2021/05/22 10:43:58;;;;;;;;;;;17.40;63.00;;;;;;5057700;28;20020;-69
2021/05/22 10:46:27;;;;;;;;;;;17.40;62.10;;;;;;5069215;28;20384;-73
2021/05/22 10:48:57;;;;;;;;;;;17.40;60.10;;;;;;5077441;28;19924;-73
2021/05/22 10:51:33;;;;;;;;;;;17.40;60.00;;;;;;5077447;28;19970;-70
2021/05/22 10:54:02;;;;;;;;;;;17.70;63.40;;;;;;5060562;28;19961;-70
2021/05/22 10:56:30;;;;;;;;;;;17.30;63.90;;;;;;5078382;28;19978;-71
2021/05/22 10:59:11;;;;;;;;;;;17.40;64.70;;;;;;5078695;28;20374;-70
2021/05/22 11:01:42;;;;;;;;;;;17.70;64.80;;;;;;5059329;28;19925;-63
2021/05/22 11:04:36;;;;;;;;;;;17.90;64.80;;;;;;5077189;28;19924;-65
2021/05/22 11:07:21;;;;;;;;;;;17.70;63.70;;;;;;5077481;28;19996;-66
2021/05/22 11:09:56;;;;;;;;;;;17.60;63.80;;;;;;5076036;28;19963;-66
2021/05/22 11:12:43;;;;;;;;;;;17.70;63.70;;;;;;5077191;28;19951;-65
2021/05/22 11:15:46;;;;;;;;;;;17.70;62.70;;;;;;5077394;28;20371;-66
2021/05/22 11:18:15;;;;;;;;;;;18.20;62.00;;;;;;5058727;28;19925;-67
2021/05/22 11:20:44;;;;;;;;;;;17.80;62.50;;;;;;5076553;28;19933;-68
2021/05/22 11:23:13;;;;;;;;;;;17.70;63.70;;;;;;5076121;28;19924;-67
2021/05/22 11:25:52;;;;;;;;;;;18.00;63.40;;;;;;5075832;28;20015;-65
2021/05/22 11:28:21;;;;;;;;;;;18.20;62.70;;;;;;5075998;28;19924;-66
2021/05/22 11:30:53;;;;;;;;;;;17.90;59.70;;;;;;5075598;28;19931;-65
2021/05/22 11:33:27;;;;;;;;;;;17.30;60.20;;;;;;5077170;28;19932;-65
2021/05/22 11:35:57;;;;;;;;;;;17.20;60.80;;;;;;5076215;28;19928;-62
2021/05/22 11:38:46;;;;;;;;;;;16.80;59.00;;;;;;5075940;28;20039;-68
2021/05/22 11:41:15;;;;;;;;;;;16.80;58.40;;;;;;5058070;28;20391;-65
2021/05/22 11:43:45;;;;;;;;;;;16.70;58.30;;;;;;5076206;28;19975;-76
2021/05/22 11:46:14;;;;;;;;;;;16.70;58.40;;;;;;5047330;28;20261;-78
2021/05/22 11:48:47;;;;;;;;;;;16.70;59.10;;;;;;5069161;28;19932;-79
2021/05/22 11:51:20;;;;;;;;;;;16.80;58.90;;;;;;5048782;28;19997;-77
2021/05/22 11:53:53;;;;;;;;;;;17.10;59.30;;;;;;5047437;28;19924;-76
2021/05/22 11:56:23;;;;;;;;;;;17.40;59.80;;;;;;5046873;28;19925;-76
2021/05/22 11:58:52;;;;;;;;;;;17.30;59.10;;;;;;5046959;28;19928;-77
2021/05/22 12:01:22;;;;;;;;;;;17.20;57.30;;;;;;5043802;28;19999;-76
2021/05/22 12:03:50;;;;;;;;;;;17.10;57.80;;;;;;5045421;28;19947;-76
2021/05/22 12:06:22;;;;;;;;;;;17.10;58.20;;;;;;5061091;28;19924;-76
2021/05/22 12:09:16;;;;;;;;;;;17.30;58.80;;;;;;5062017;28;20277;-75
2021/05/22 12:11:59;;;;;;;;;;;17.00;57.30;;;;;;5045458;28;19925;-75
2021/05/22 12:14:38;;;;;;;;;;;16.90;57.60;;;;;;5060975;28;20015;-76
2021/05/22 12:17:07;;;;;;;;;;;17.30;56.80;;;;;;5060860;28;19925;-75
2021/05/22 12:19:36;;;;;;;;;;;17.10;56.00;;;;;;5062532;28;19956;-75
2021/05/22 12:22:09;;;;;;;;;;;17.10;56.50;;;;;;5061212;28;19925;-75
2021/05/22 12:24:39;;;;;;;;;;;17.20;55.80;;;;;;5046165;28;20368;-75
2021/05/22 12:27:12;;;;;;;;;;;17.00;56.20;;;;;;5063024;28;19931;-77
2021/05/22 12:29:40;;;;;;;;;;;17.00;57.30;;;;;;5062094;28;19924;-75
2021/05/22 12:32:13;;;;;;;;;;;17.30;57.70;;;;;;5045190;28;19974;-76
2021/05/22 12:34:41;;;;;;;;;;;17.30;56.40;;;;;;5046172;28;19925;-75
2021/05/22 12:37:10;;;;;;;;;;;17.40;55.90;;;;;;5061760;28;19924;-75
2021/05/22 12:39:39;;;;;;;;;;;17.20;55.70;;;;;;5062210;28;19947;-79
2021/05/22 12:42:18;;;;;;;;;;;17.40;56.90;;;;;;5061270;28;19924;-74
2021/05/22 12:44:46;;;;;;;;;;;17.60;55.90;;;;;;5061072;28;20303;-74
2021/05/22 12:47:15;;;;;;;;;;;17.60;55.10;;;;;;5041923;28;20368;-75
2021/05/22 12:49:53;;;;;;;;;;;17.70;56.00;;;;;;5058969;28;20083;-74
2021/05/22 12:52:22;;;;;;;;;;;17.70;54.80;;;;;;5059385;28;20349;-75
2021/05/22 12:54:50;;;;;;;;;;;17.70;54.80;;;;;;5042445;28;19977;-76
2021/05/22 12:57:19;;;;;;;;;;;17.70;55.10;;;;;;5042980;28;20431;-74
2021/05/22 13:00:02;;;;;;;;;;;17.40;54.40;;;;;;5058628;28;19931;-74
2021/05/22 13:02:31;;;;;;;;;;;17.20;55.00;;;;;;5041553;28;19933;-76
2021/05/22 13:05:14;;;;;;;;;;;17.40;54.70;;;;;;5077358;28;20430;-75
2021/05/22 13:08:07;;;;;;;;;;;17.50;54.60;;;;;;5080036;28;20379;-74
2021/05/22 13:11:07;;;;;;;;;;;17.50;55.00;;;;;;5062946;28;20383;-74
2021/05/22 13:13:36;;;;;;;;;;;17.70;55.10;;;;;;5063093;28;19957;-74
2021/05/22 13:16:06;;;;;;;;;;;17.70;53.70;;;;;;5044712;28;19932;-74
2021/05/22 13:18:35;;;;;;;;;;;17.70;54.20;;;;;;5045841;28;20433;-77
2021/05/22 13:21:04;;;;;;;;;;;17.80;54.30;;;;;;5061944;28;19928;-75
2021/05/22 13:23:34;;;;;;;;;;;17.90;54.30;;;;;;5045514;28;19959;-75
2021/05/22 13:26:28;;;;;;;;;;;18.00;54.50;;;;;;5041685;28;19929;-75
2021/05/22 13:29:03;;;;;;;;;;;18.20;53.70;;;;;;5060187;28;20402;-75
2021/05/22 13:31:42;;;;;;;;;;;18.30;54.70;;;;;;5058238;28;20384;-74
2021/05/22 13:34:11;;;;;;;;;;;18.30;54.10;;;;;;5058222;28;19925;-74
2021/05/22 13:36:40;;;;;;;;;;;18.50;53.80;;;;;;5041053;28;19925;-74
2021/05/22 13:39:12;;;;;;;;;;;18.50;53.60;;;;;;5059257;28;20352;-75
2021/05/22 13:41:42;;;;;;;;;;;18.70;54.30;;;;;;5057900;28;19936;-74
2021/05/22 13:44:12;;;;;;;;;;;18.80;53.20;;;;;;5057909;28;19924;-74
2021/05/22 13:46:41;;;;;;;;;;;18.40;51.50;;;;;;5056613;28;19925;-74
2021/05/22 13:49:09;;;;;;;;;;;18.70;52.00;;;;;;5057946;28;19961;-74
2021/05/22 13:51:38;;;;;;;;;;;18.70;52.80;;;;;;5059779;28;19928;-73
2021/05/22 13:54:07;;;;;;;;;;;18.50;52.60;;;;;;5057970;28;20031;-75
2021/05/22 13:56:35;;;;;;;;;;;18.20;53.30;;;;;;5057733;28;19928;-74
2021/05/22 13:59:03;;;;;;;;;;;18.00;54.00;;;;;;5057766;28;19956;-74
2021/05/22 14:01:32;;;;;;;;;;;18.10;54.50;;;;;;5058149;28;19948;-73
2021/05/22 14:04:00;;;;;;;;;;;18.30;54.40;;;;;;5057829;28;20323;-74
2021/05/22 14:06:28;;;;;;;;;;;18.70;55.40;;;;;;5058839;28;19925;-73
2021/05/22 14:08:56;;;;;;;;;;;19.00;51.20;;;;;;5040666;28;19932;-75
2021/05/22 14:11:25;;;;;;;;;;;18.30;50.70;;;;;;5040615;28;19956;-73
2021/05/22 14:13:53;;;;;;;;;;;18.20;52.30;;;;;;5057606;28;20027;-74
2021/05/22 14:16:21;;;;;;;;;;;18.30;52.50;;;;;;5056493;28;19928;-74
2021/05/22 14:18:49;;;;;;;;;;;18.90;50.80;;;;;;5040686;28;19925;-74
2021/05/22 14:21:17;;;;;;;;;;;18.80;50.00;;;;;;5057023;28;19932;-74
2021/05/22 14:23:45;;;;;;;;;;;18.90;50.30;;;;;;5057052;28;19929;-73
2021/05/22 14:26:19;;;;;;;;;;;18.80;50.50;;;;;;5056511;28;19948;-74
2021/05/22 14:28:47;;;;;;;;;;;19.00;49.90;;;;;;5059014;28;19964;-73
2021/05/22 14:31:15;;;;;;;;;;;18.80;50.40;;;;;;5056973;28;20015;-74
2021/05/22 14:33:44;;;;;;;;;;;18.80;51.10;;;;;;5058204;28;20288;-73
2021/05/22 14:36:13;;;;;;;;;;;18.80;50.80;;;;;;5059503;28;19925;-74
2021/05/22 14:38:41;;;;;;;;;;;18.60;50.30;;;;;;5040761;28;20015;-74
2021/05/22 14:41:09;;;;;;;;;;;18.40;51.00;;;;;;5057204;28;19979;-76
2021/05/22 14:43:40;;;;;;;;;;;18.70;50.80;;;;;;5059507;28;20365;-74
2021/05/22 14:46:08;;;;;;;;;;;18.70;50.30;;;;;;5057623;28;19931;-75